createdAt,value
2018-07-23T00:00:48.316Z,1016.87
2018-07-23T00:01:49.235Z,1016.89
2018-07-23T00:02:53.236Z,1016.91
2018-07-23T00:03:48.853Z,1016.90
2018-07-23T00:04:48.204Z,1016.91
2018-07-23T00:05:49.161Z,1016.85
2018-07-23T00:06:48.807Z,1016.86
2018-07-23T00:07:48.228Z,1016.88
2018-07-23T00:08:48.444Z,1016.85
2018-07-23T00:09:49.294Z,1016.89
2018-07-23T00:10:48.980Z,1016.86
2018-07-23T00:11:48.538Z,1016.85
2018-07-23T00:12:48.940Z,1016.87
2018-07-23T00:13:48.339Z,1016.87
2018-07-23T00:15:31.464Z,1016.88
2018-07-23T00:16:31.912Z,1016.89
2018-07-23T00:17:31.834Z,1016.90
2018-07-23T00:18:32.247Z,1016.90
2018-07-23T00:19:31.780Z,1016.66
2018-07-23T00:20:32.111Z,1016.87
2018-07-23T00:21:31.899Z,1016.88
2018-07-23T00:22:31.622Z,1016.94
2018-07-23T00:23:32.141Z,1016.92
2018-07-23T00:24:52.900Z,1016.92
2018-07-23T00:25:53.349Z,1016.89
2018-07-23T00:27:13.846Z,1016.86
2018-07-23T00:28:14.295Z,1016.88
2018-07-23T00:29:14.865Z,1016.84
2018-07-23T00:30:14.424Z,1016.84
2018-07-23T00:31:14.608Z,1016.84
2018-07-23T00:32:35.463Z,1016.85
2018-07-23T00:33:41.045Z,1016.84
2018-07-23T00:34:35.846Z,1016.86
2018-07-23T00:35:35.151Z,1016.86
2018-07-23T00:36:35.971Z,1016.85
2018-07-23T00:37:35.447Z,1016.82
2018-07-23T00:38:36.072Z,1016.78
2018-07-23T00:39:56.800Z,1016.63
2018-07-23T00:40:59.559Z,1016.80
2018-07-23T00:41:57.047Z,1016.78
2018-07-23T00:42:57.579Z,1016.79
2018-07-23T00:44:17.855Z,1016.77
2018-07-23T00:45:18.420Z,1016.78
2018-07-23T00:46:19.169Z,1016.75
2018-07-23T00:47:18.995Z,1016.77
2018-07-23T00:48:18.378Z,1016.77
2018-07-23T00:49:19.072Z,1016.75
2018-07-23T00:50:41.668Z,1016.76
2018-07-23T00:51:42.165Z,1016.75
2018-07-23T00:53:03.254Z,1016.73
2018-07-23T00:54:04.155Z,1016.74
2018-07-23T00:55:03.589Z,1016.73
2018-07-23T00:56:03.788Z,1016.73
2018-07-23T00:57:04.457Z,1016.76
2018-07-23T00:58:04.064Z,1016.77
2018-07-23T00:59:03.495Z,1016.77
2018-07-23T01:00:04.230Z,1016.79
2018-07-23T01:01:03.568Z,1016.76
2018-07-23T01:02:04.192Z,1016.78
2018-07-23T01:03:03.696Z,1016.77
2018-07-23T01:04:04.277Z,1016.82
2018-07-23T01:05:03.875Z,1016.84
2018-07-23T01:06:04.250Z,1016.83
2018-07-23T01:07:04.814Z,1016.84
2018-07-23T01:08:03.960Z,1016.86
2018-07-23T01:09:03.314Z,1016.86
2018-07-23T01:10:03.946Z,1016.87
2018-07-23T01:11:03.473Z,1016.88
2018-07-23T01:12:04.127Z,1016.90
2018-07-23T01:13:03.426Z,1016.91
2018-07-23T01:14:04.624Z,1016.86
2018-07-23T01:15:04.119Z,1016.87
2018-07-23T01:16:03.691Z,1016.89
2018-07-23T01:17:05.574Z,1016.88
2018-07-23T01:18:04.569Z,1016.91
2018-07-23T01:19:04.349Z,1016.89
2018-07-23T01:20:03.809Z,1016.89
2018-07-23T01:21:04.454Z,1016.90
2018-07-23T01:22:04.428Z,1016.90
2018-07-23T01:23:04.176Z,1016.94
2018-07-23T01:24:04.091Z,1016.93
2018-07-23T01:25:46.365Z,1016.88
2018-07-23T01:26:46.659Z,1016.87
2018-07-23T01:27:47.658Z,1016.89
2018-07-23T01:28:46.894Z,1016.91
2018-07-23T01:29:48.814Z,1016.86
2018-07-23T01:30:48.322Z,1016.83
2018-07-23T01:31:46.682Z,1016.87
2018-07-23T01:32:47.396Z,1016.85
2018-07-23T01:33:47.176Z,1016.80
2018-07-23T01:35:07.814Z,1016.82
2018-07-23T01:36:30.186Z,1016.84
2018-07-23T01:37:31.210Z,1016.86
2018-07-23T01:38:30.908Z,1016.84
2018-07-23T01:39:53.952Z,1016.79
2018-07-23T01:40:54.599Z,1016.79
2018-07-23T01:41:54.184Z,1016.78
2018-07-23T01:42:53.660Z,1016.81
2018-07-23T01:43:55.696Z,1016.75
2018-07-23T01:45:15.540Z,1016.80
2018-07-23T01:46:15.980Z,1016.78
2018-07-23T01:47:16.412Z,1016.79
2018-07-23T01:48:15.827Z,1016.78
2018-07-23T01:49:16.433Z,1016.75
2018-07-23T01:50:15.950Z,1016.75
2018-07-23T01:51:39.856Z,1016.73
2018-07-23T01:52:40.515Z,1016.70
2018-07-23T01:53:39.998Z,1016.71
2018-07-23T01:54:40.380Z,1016.68
2018-07-23T01:55:39.990Z,1016.72
2018-07-23T01:56:40.634Z,1016.71
2018-07-23T01:57:40.970Z,1016.64
2018-07-23T01:58:40.511Z,1016.64
2018-07-23T01:59:40.189Z,1016.66
2018-07-23T02:00:39.837Z,1016.65
2018-07-23T02:01:40.489Z,1016.66
2018-07-23T02:03:01.470Z,1016.69
2018-07-23T02:04:23.129Z,1016.69
2018-07-23T02:05:24.030Z,1016.73
2018-07-23T02:06:23.683Z,1016.72
2018-07-23T02:07:23.483Z,1016.72
2018-07-23T02:08:23.814Z,1016.76
2018-07-23T02:09:23.776Z,1016.73
2018-07-23T02:10:23.589Z,1016.75
2018-07-23T02:11:24.626Z,1016.69
2018-07-23T02:12:23.084Z,1016.74
2018-07-23T02:13:23.670Z,1016.73
2018-07-23T02:14:44.295Z,1016.73
2018-07-23T02:15:45.192Z,1016.76
2018-07-23T02:16:44.803Z,1016.75
2018-07-23T02:17:44.755Z,1016.77
2018-07-23T02:18:44.481Z,1016.77
2018-07-23T02:19:44.805Z,1016.80
2018-07-23T02:20:45.244Z,1016.81
2018-07-23T02:21:44.995Z,1016.82
2018-07-23T02:22:44.494Z,1016.80
2018-07-23T02:23:45.129Z,1016.83
2018-07-23T02:24:44.620Z,1016.85
2018-07-23T02:25:45.149Z,1016.84
2018-07-23T02:27:05.892Z,1016.84
2018-07-23T02:28:06.284Z,1016.85
2018-07-23T02:29:26.822Z,1016.87
2018-07-23T02:30:27.457Z,1016.89
2018-07-23T02:31:27.931Z,1016.92
2018-07-23T02:32:27.474Z,1016.93
2018-07-23T02:33:27.340Z,1016.92
2018-07-23T02:34:27.954Z,1016.93
2018-07-23T02:35:27.611Z,1016.95
2018-07-23T02:36:27.022Z,1016.96
2018-07-23T02:37:28.863Z,1016.98
2018-07-23T02:38:27.174Z,1016.96
2018-07-23T02:39:27.534Z,1016.96
2018-07-23T02:40:27.715Z,1016.99
2018-07-23T02:41:27.417Z,1016.98
2018-07-23T02:42:26.812Z,1016.97
2018-07-23T02:43:27.227Z,1017.00
2018-07-23T02:44:27.724Z,1016.98
2018-07-23T02:45:27.353Z,1016.95
2018-07-23T02:46:27.927Z,1016.96
2018-07-23T02:47:27.178Z,1016.92
2018-07-23T02:48:27.611Z,1016.92
2018-07-23T02:49:27.526Z,1016.93
2018-07-23T02:50:27.129Z,1016.94
2018-07-23T02:51:27.553Z,1016.91
2018-07-23T02:52:27.201Z,1016.93
2018-07-23T02:53:27.631Z,1016.91
2018-07-23T02:54:27.270Z,1016.89
2018-07-23T02:55:27.632Z,1016.89
2018-07-23T02:56:27.025Z,1016.91
2018-07-23T02:57:27.557Z,1016.94
2018-07-23T02:58:26.979Z,1016.92
2018-07-23T02:59:27.393Z,1016.92
2018-07-23T03:00:27.931Z,1016.94
2018-07-23T03:01:27.183Z,1016.97
2018-07-23T03:02:48.902Z,1016.99
2018-07-23T03:03:49.489Z,1016.99
2018-07-23T03:05:32.596Z,1017.03
2018-07-23T03:06:33.144Z,1016.98
2018-07-23T03:07:32.493Z,1017.04
2018-07-23T03:08:33.127Z,1017.00
2018-07-23T03:09:32.453Z,1017.01
2018-07-23T03:10:32.862Z,1017.05
2018-07-23T03:11:32.564Z,1017.03
2018-07-23T03:12:54.621Z,1017.04
2018-07-23T03:13:54.946Z,1017.06
2018-07-23T03:14:55.497Z,1017.04
2018-07-23T03:15:54.819Z,1017.05
2018-07-23T03:16:55.262Z,1017.06
2018-07-23T03:17:54.735Z,1017.07
2018-07-23T03:18:55.254Z,1017.08
2018-07-23T03:19:54.457Z,1017.10
2018-07-23T03:21:16.129Z,1016.99
2018-07-23T03:22:37.733Z,1017.09
2018-07-23T03:23:38.361Z,1017.10
2018-07-23T03:24:38.061Z,1017.14
2018-07-23T03:25:37.526Z,1017.13
2018-07-23T03:26:37.791Z,1017.15
2018-07-23T03:27:38.499Z,1017.09
2018-07-23T03:29:01.733Z,1017.11
2018-07-23T03:30:02.080Z,1017.13
2018-07-23T03:31:02.770Z,1017.11
2018-07-23T03:32:02.320Z,1017.12
2018-07-23T03:33:01.895Z,1017.15
2018-07-23T03:34:02.680Z,1017.15
2018-07-23T03:35:02.066Z,1017.16
2018-07-23T03:36:01.523Z,1017.18
2018-07-23T03:37:02.013Z,1017.13
2018-07-23T03:38:01.793Z,1017.20
2018-07-23T03:39:23.803Z,1017.23
2018-07-23T03:40:24.668Z,1017.26
2018-07-23T03:41:24.455Z,1017.24
2018-07-23T03:42:24.135Z,1017.25
2018-07-23T03:43:25.004Z,1017.27
2018-07-23T03:44:24.681Z,1017.30
2018-07-23T03:45:24.154Z,1017.32
2018-07-23T03:46:25.009Z,1017.31
2018-07-23T03:47:24.476Z,1017.34
2018-07-23T03:48:24.035Z,1017.32
2018-07-23T03:49:24.446Z,1017.35
2018-07-23T03:50:25.046Z,1017.33
2018-07-23T03:51:24.347Z,1017.33
2018-07-23T03:53:06.404Z,1017.37
2018-07-23T03:54:06.947Z,1017.41
2018-07-23T03:55:07.409Z,1017.43
2018-07-23T03:56:06.811Z,1017.40
2018-07-23T03:57:29.126Z,1017.41
2018-07-23T03:58:29.668Z,1017.46
2018-07-23T03:59:29.273Z,1017.45
2018-07-23T04:00:28.916Z,1017.44
2018-07-23T04:01:29.766Z,1017.49
2018-07-23T04:02:29.562Z,1017.52
2018-07-23T04:03:29.113Z,1017.51
2018-07-23T04:04:29.769Z,1017.51
2018-07-23T04:05:29.309Z,1017.54
2018-07-23T04:06:29.854Z,1017.51
2018-07-23T04:07:50.558Z,1017.52
2018-07-23T04:08:51.128Z,1017.53
2018-07-23T04:09:50.586Z,1017.51
2018-07-23T04:10:51.290Z,1017.52
2018-07-23T04:11:50.948Z,1017.53
2018-07-23T04:12:53.046Z,1017.51
2018-07-23T04:14:13.373Z,1017.53
2018-07-23T04:15:14.091Z,1017.55
2018-07-23T04:16:38.373Z,1017.57
2018-07-23T04:17:39.386Z,1017.60
2018-07-23T04:18:39.251Z,1017.60
2018-07-23T04:19:38.701Z,1017.61
2018-07-23T04:20:38.433Z,1017.63
2018-07-23T04:21:38.901Z,1017.66
2018-07-23T04:22:38.510Z,1017.68
2018-07-23T04:23:40.237Z,1017.69
2018-07-23T04:24:39.259Z,1017.64
2018-07-23T04:25:39.023Z,1017.68
2018-07-23T04:26:38.924Z,1017.64
2018-07-23T04:27:38.893Z,1017.64
2018-07-23T04:28:38.670Z,1017.62
2018-07-23T04:29:38.479Z,1017.62
2018-07-23T04:30:39.097Z,1017.64
2018-07-23T04:31:38.621Z,1017.64
2018-07-23T04:32:38.407Z,1017.63
2018-07-23T04:33:39.170Z,1017.61
2018-07-23T04:35:00.211Z,1017.63
2018-07-23T04:36:00.798Z,1017.58
2018-07-23T04:37:00.769Z,1017.59
2018-07-23T04:38:00.406Z,1017.56
2018-07-23T04:39:01.470Z,1017.58
2018-07-23T04:40:01.127Z,1017.58
2018-07-23T04:41:00.849Z,1017.59
2018-07-23T04:42:22.347Z,1017.62
2018-07-23T04:43:23.188Z,1017.59
2018-07-23T04:45:05.814Z,1017.58
2018-07-23T04:46:07.538Z,1017.59
2018-07-23T04:47:27.449Z,1017.64
2018-07-23T04:48:28.039Z,1017.63
2018-07-23T04:49:27.708Z,1017.60
2018-07-23T04:50:28.582Z,1017.65
2018-07-23T04:51:28.273Z,1017.60
2018-07-23T04:52:29.130Z,1017.58
2018-07-23T04:53:49.368Z,1017.59
2018-07-23T04:54:49.983Z,1017.60
2018-07-23T04:55:49.578Z,1017.61
2018-07-23T04:56:49.079Z,1017.63
2018-07-23T04:57:49.935Z,1017.62
2018-07-23T04:58:49.897Z,1017.63
2018-07-23T04:59:49.670Z,1017.64
2018-07-23T05:00:49.287Z,1017.60
2018-07-23T05:02:10.984Z,1017.67
2018-07-23T05:03:11.744Z,1017.68
2018-07-23T05:04:11.180Z,1017.73
2018-07-23T05:05:33.728Z,1017.73
2018-07-23T05:06:34.440Z,1017.72
2018-07-23T05:07:55.573Z,1017.75
2018-07-23T05:08:56.260Z,1017.67
2018-07-23T05:09:56.036Z,1017.69
2018-07-23T05:11:17.362Z,1017.69
2018-07-23T05:12:17.844Z,1017.68
2018-07-23T05:13:17.408Z,1017.66
2018-07-23T05:14:17.117Z,1017.68
2018-07-23T05:15:18.082Z,1017.70
2018-07-23T05:16:17.629Z,1017.68
2018-07-23T05:17:17.267Z,1017.70
2018-07-23T05:18:17.796Z,1017.71
2018-07-23T05:19:17.775Z,1017.72
2018-07-23T05:20:17.468Z,1017.74
2018-07-23T05:21:18.642Z,1017.74
2018-07-23T05:23:00.098Z,1017.77
2018-07-23T05:24:03.099Z,1017.76
2018-07-23T05:25:02.099Z,1017.77
2018-07-23T05:26:00.848Z,1017.79
2018-07-23T05:27:00.409Z,1017.76
2018-07-23T05:28:01.279Z,1017.78
2018-07-23T05:29:01.075Z,1017.82
2018-07-23T05:30:00.986Z,1017.76
2018-07-23T05:31:01.223Z,1017.80
2018-07-23T05:32:22.510Z,1017.81
2018-07-23T05:33:23.237Z,1017.79
2018-07-23T05:34:22.934Z,1017.83
2018-07-23T05:35:22.625Z,1017.80
2018-07-23T05:36:23.278Z,1017.80
2018-07-23T05:37:44.595Z,1017.81
2018-07-23T05:38:45.206Z,1017.87
2018-07-23T05:40:07.063Z,1017.86
2018-07-23T05:41:28.105Z,1017.85
2018-07-23T05:42:28.924Z,1017.84
2018-07-23T05:43:28.826Z,1017.78
2018-07-23T05:44:28.318Z,1017.76
2018-07-23T05:45:28.238Z,1017.76
2018-07-23T05:46:28.675Z,1017.76
2018-07-23T05:47:28.591Z,1017.75
2018-07-23T05:48:28.023Z,1017.74
2018-07-23T05:49:50.127Z,1017.74
2018-07-23T05:50:51.059Z,1017.72
2018-07-23T05:52:12.064Z,1017.74
2018-07-23T05:53:12.855Z,1017.78
2018-07-23T05:54:12.443Z,1017.80
2018-07-23T05:55:12.220Z,1017.81
2018-07-23T05:56:27.281Z,1017.82
2018-07-23T05:57:15.170Z,1017.80
2018-07-23T05:58:12.098Z,1017.79
2018-07-23T05:59:56.093Z,1017.83
2018-07-23T06:00:57.007Z,1017.87
2018-07-23T06:01:56.484Z,1017.81
2018-07-23T06:02:56.518Z,1017.80
2018-07-23T06:03:56.001Z,1017.84
2018-07-23T06:04:57.018Z,1017.84
2018-07-23T06:06:17.988Z,1017.80
2018-07-23T06:07:19.474Z,1017.84
2018-07-23T06:08:18.297Z,1017.88
2018-07-23T06:09:18.113Z,1017.87
2018-07-23T06:10:18.869Z,1017.89
2018-07-23T06:11:18.821Z,1017.88
2018-07-23T06:12:18.620Z,1017.86
2018-07-23T06:13:39.959Z,1017.89
2018-07-23T06:15:02.095Z,1017.86
2018-07-23T06:16:02.848Z,1017.82
2018-07-23T06:17:02.736Z,1017.85
2018-07-23T06:18:02.427Z,1017.88
2018-07-23T06:19:03.123Z,1017.82
2018-07-23T06:20:30.836Z,1017.79
2018-07-23T06:21:31.962Z,1017.82
2018-07-23T06:22:31.812Z,1017.85
2018-07-23T06:23:31.384Z,1017.88
2018-07-23T06:25:15.562Z,1017.89
2018-07-23T06:26:38.075Z,1017.82
2018-07-23T06:27:39.077Z,1017.83
2018-07-23T06:28:38.879Z,1017.84
2018-07-23T06:29:38.797Z,1017.85
2018-07-23T06:30:38.410Z,1017.80
2018-07-23T06:31:38.027Z,1017.82
2018-07-23T06:32:38.507Z,1017.80
2018-07-23T06:33:38.144Z,1017.80
2018-07-23T06:34:38.996Z,1017.82
2018-07-23T06:35:38.581Z,1017.82
2018-07-23T06:36:38.249Z,1017.83
2018-07-23T06:37:39.690Z,1017.83
2018-07-23T06:38:38.669Z,1017.81
2018-07-23T06:39:38.609Z,1017.83
2018-07-23T06:40:38.623Z,1017.80
2018-07-23T06:41:59.798Z,1017.80
2018-07-23T06:43:00.574Z,1017.82
2018-07-23T06:44:00.344Z,1017.78
2018-07-23T06:45:00.015Z,1017.81
2018-07-23T06:46:00.732Z,1017.81
2018-07-23T06:47:00.573Z,1017.82
2018-07-23T06:48:00.177Z,1017.81
2018-07-23T06:49:00.106Z,1017.82
2018-07-23T06:50:00.982Z,1017.81
2018-07-23T06:51:00.944Z,1017.86
2018-07-23T06:52:00.690Z,1017.85
2018-07-23T06:53:22.290Z,1017.86
2018-07-23T06:54:23.028Z,1017.85
2018-07-23T06:56:05.652Z,1017.86
2018-07-23T06:57:06.671Z,1017.84
2018-07-23T06:58:27.926Z,1017.84
2018-07-23T06:59:28.624Z,1017.85
2018-07-23T07:00:28.333Z,1017.83
2018-07-23T07:01:27.930Z,1017.87
2018-07-23T07:02:27.783Z,1017.87
2018-07-23T07:03:28.835Z,1017.86
2018-07-23T07:04:28.386Z,1017.85
2018-07-23T07:05:28.450Z,1017.86
2018-07-23T07:06:28.601Z,1017.89
2018-07-23T07:07:28.489Z,1017.85
2018-07-23T07:08:28.072Z,1017.88
2018-07-23T07:09:27.887Z,1017.88
2018-07-23T07:10:28.800Z,1017.89
2018-07-23T07:11:28.390Z,1017.90
2018-07-23T07:12:27.822Z,1017.92
2018-07-23T07:13:29.275Z,1017.90
2018-07-23T07:14:50.370Z,1017.88
2018-07-23T07:15:50.029Z,1017.88
2018-07-23T07:17:11.002Z,1017.86
2018-07-23T07:18:11.682Z,1017.89
2018-07-23T07:19:12.409Z,1017.87
2018-07-23T07:20:32.679Z,1017.87
2018-07-23T07:21:34.624Z,1017.92
2018-07-23T07:22:33.464Z,1017.96
2018-07-23T07:23:32.969Z,1017.90
2018-07-23T07:24:53.917Z,1017.90
2018-07-23T07:25:54.849Z,1017.87
2018-07-23T07:26:54.815Z,1017.85
2018-07-23T07:27:54.512Z,1017.82
2018-07-23T07:28:54.458Z,1017.82
2018-07-23T07:30:16.300Z,1017.84
2018-07-23T07:31:16.821Z,1017.82
2018-07-23T07:32:17.271Z,1017.84
2018-07-23T07:33:17.581Z,1017.86
2018-07-23T07:34:16.369Z,1017.84
2018-07-23T07:35:38.981Z,1017.86
2018-07-23T07:36:38.918Z,1017.83
2018-07-23T07:37:38.650Z,1017.91
2018-07-23T07:38:39.965Z,1017.88
2018-07-23T07:39:39.432Z,1017.92
2018-07-23T07:40:38.915Z,1017.93
2018-07-23T07:41:39.735Z,1017.91
2018-07-23T07:42:39.790Z,1017.93
2018-07-23T07:43:40.101Z,1017.90
2018-07-23T07:44:38.841Z,1017.92
2018-07-23T07:45:39.366Z,1017.94
2018-07-23T07:46:39.460Z,1017.97
2018-07-23T07:47:38.995Z,1017.98
2018-07-23T07:49:02.522Z,1017.96
2018-07-23T07:50:03.120Z,1017.93
2018-07-23T07:51:02.795Z,1017.96
2018-07-23T07:52:03.327Z,1017.98
2018-07-23T07:53:24.460Z,1017.95
2018-07-23T07:54:24.535Z,1017.91
2018-07-23T07:55:24.533Z,1017.88
2018-07-23T07:56:25.363Z,1017.84
2018-07-23T07:57:25.343Z,1017.88
2018-07-23T07:58:46.575Z,1017.83
2018-07-23T07:59:47.132Z,1017.87
2018-07-23T08:00:47.213Z,1017.83
2018-07-23T08:01:46.784Z,1017.84
2018-07-23T08:02:46.554Z,1017.78
2018-07-23T08:03:47.560Z,1017.79
2018-07-23T08:04:46.197Z,1017.81
2018-07-23T08:05:47.222Z,1017.79
2018-07-23T08:06:46.798Z,1017.79
2018-07-23T08:07:46.801Z,1017.77
2018-07-23T08:09:08.348Z,1017.74
2018-07-23T08:10:08.909Z,1017.78
2018-07-23T08:11:31.790Z,1017.76
2018-07-23T08:12:32.910Z,1017.78
2018-07-23T08:13:54.653Z,1017.75
2018-07-23T08:14:54.385Z,1017.74
2018-07-23T08:15:55.474Z,1017.74
2018-07-23T08:16:55.247Z,1017.74
2018-07-23T08:18:16.826Z,1017.75
2018-07-23T08:19:17.878Z,1017.74
2018-07-23T08:20:17.909Z,1017.76
2018-07-23T08:21:17.804Z,1017.75
2018-07-23T08:22:17.740Z,1017.73
2018-07-23T08:23:17.220Z,1017.77
2018-07-23T08:24:16.907Z,1017.78
2018-07-23T08:25:17.605Z,1017.75
2018-07-23T08:26:17.177Z,1017.73
2018-07-23T08:27:17.056Z,1017.72
2018-07-23T08:28:17.505Z,1017.74
2018-07-23T08:29:17.077Z,1017.73
2018-07-23T08:30:16.687Z,1017.74
2018-07-23T08:31:17.511Z,1017.77
2018-07-23T08:32:17.467Z,1017.74
2018-07-23T08:33:17.304Z,1017.73
2018-07-23T08:34:17.769Z,1017.73
2018-07-23T08:35:17.328Z,1017.72
2018-07-23T08:36:16.961Z,1017.68
2018-07-23T08:37:16.854Z,1017.66
2018-07-23T08:39:00.832Z,1017.65
2018-07-23T08:40:01.467Z,1017.66
2018-07-23T08:41:44.673Z,1017.70
2018-07-23T08:42:45.612Z,1017.69
2018-07-23T08:44:07.110Z,1017.74
2018-07-23T08:45:29.761Z,1017.78
2018-07-23T08:46:30.703Z,1017.79
2018-07-23T08:47:29.391Z,1017.84
2018-07-23T08:48:30.329Z,1017.81
2018-07-23T08:49:30.245Z,1017.81
2018-07-23T08:50:51.685Z,1017.74
2018-07-23T08:51:52.701Z,1017.82
2018-07-23T08:53:35.715Z,1017.84
2018-07-23T08:54:36.226Z,1017.83
2018-07-23T08:55:36.213Z,1017.81
2018-07-23T08:56:36.054Z,1017.81
2018-07-23T08:57:35.773Z,1017.81
2018-07-23T08:58:36.366Z,1017.79
2018-07-23T08:59:36.038Z,1017.77
2018-07-23T09:00:57.290Z,1017.78
2018-07-23T09:01:57.777Z,1017.77
2018-07-23T09:02:57.534Z,1017.76
2018-07-23T09:03:58.124Z,1017.78
2018-07-23T09:04:57.892Z,1017.81
2018-07-23T09:06:19.169Z,1017.82
2018-07-23T09:07:20.184Z,1017.81
2018-07-23T09:08:20.191Z,1017.80
2018-07-23T09:09:20.001Z,1017.87
2018-07-23T09:10:20.024Z,1017.90
2018-07-23T09:11:41.238Z,1017.89
2018-07-23T09:12:41.978Z,1017.87
2018-07-23T09:13:41.655Z,1017.86
2018-07-23T09:14:41.678Z,1017.87
2018-07-23T09:15:41.532Z,1017.90
2018-07-23T09:17:23.997Z,1017.90
2018-07-23T09:18:24.872Z,1017.86
2018-07-23T09:19:24.824Z,1017.88
2018-07-23T09:20:45.872Z,1017.84
2018-07-23T09:21:46.730Z,1017.87
2018-07-23T09:22:47.758Z,1017.86
2018-07-23T09:23:46.722Z,1017.89
2018-07-23T09:24:46.652Z,1017.86
2018-07-23T09:25:46.602Z,1017.88
2018-07-23T09:26:46.427Z,1017.83
2018-07-23T09:27:45.912Z,1017.84
2018-07-23T09:28:46.738Z,1017.88
2018-07-23T09:29:46.354Z,1017.89
2018-07-23T09:30:46.030Z,1017.89
2018-07-23T09:31:45.886Z,1017.85
2018-07-23T09:32:46.499Z,1017.85
2018-07-23T09:33:46.115Z,1017.85
2018-07-23T09:34:45.562Z,1017.82
2018-07-23T09:36:07.508Z,1017.81
2018-07-23T09:37:08.218Z,1017.81
2018-07-23T09:38:08.784Z,1017.81
2018-07-23T09:39:08.391Z,1017.82
2018-07-23T09:40:08.142Z,1017.82
2018-07-23T09:41:08.005Z,1017.81
2018-07-23T09:42:07.951Z,1017.79
2018-07-23T09:43:29.892Z,1017.81
2018-07-23T09:44:30.632Z,1017.78
2018-07-23T09:45:30.546Z,1017.78
2018-07-23T09:46:30.124Z,1017.81
2018-07-23T09:47:54.394Z,1017.78
2018-07-23T09:48:55.115Z,1017.76
2018-07-23T09:49:54.690Z,1017.75
2018-07-23T09:50:54.313Z,1017.75
2018-07-23T09:51:55.306Z,1017.77
2018-07-23T09:52:55.061Z,1017.74
2018-07-23T09:53:54.843Z,1017.72
2018-07-23T09:55:16.441Z,1017.75
2018-07-23T09:56:16.852Z,1017.76
2018-07-23T09:57:16.366Z,1017.80
2018-07-23T09:58:16.769Z,1017.82
2018-07-23T09:59:16.412Z,1017.77
2018-07-23T10:00:38.391Z,1017.78
2018-07-23T10:01:39.051Z,1017.81
2018-07-23T10:02:39.004Z,1017.82
2018-07-23T10:03:38.804Z,1017.80
2018-07-23T10:04:38.445Z,1017.83
2018-07-23T10:05:39.006Z,1017.81
2018-07-23T10:06:39.405Z,1017.80
2018-07-23T10:07:38.990Z,1017.81
2018-07-23T10:08:38.627Z,1017.82
2018-07-23T10:09:38.384Z,1017.82
2018-07-23T10:10:39.723Z,1017.81
2018-07-23T10:11:38.281Z,1017.83
2018-07-23T10:12:39.194Z,1017.81
2018-07-23T10:13:38.883Z,1017.80
2018-07-23T10:15:00.489Z,1017.78
2018-07-23T10:16:22.688Z,1017.75
2018-07-23T10:17:23.941Z,1017.74
2018-07-23T10:18:22.900Z,1017.75
2018-07-23T10:19:22.933Z,1017.75
2018-07-23T10:20:44.709Z,1017.69
2018-07-23T10:21:45.588Z,1017.68
2018-07-23T10:22:45.271Z,1017.69
2018-07-23T10:23:44.815Z,1017.73
2018-07-23T10:24:45.455Z,1017.72
2018-07-23T10:25:45.605Z,1017.66
2018-07-23T10:26:45.290Z,1017.65
2018-07-23T10:27:44.974Z,1017.63
2018-07-23T10:28:45.528Z,1017.64
2018-07-23T10:30:06.496Z,1017.64
2018-07-23T10:31:07.204Z,1017.65
2018-07-23T10:32:06.958Z,1017.68
2018-07-23T10:33:06.829Z,1017.60
2018-07-23T10:34:29.192Z,1017.63
2018-07-23T10:35:50.879Z,1017.64
2018-07-23T10:36:50.881Z,1017.63
2018-07-23T10:37:51.702Z,1017.65
2018-07-23T10:38:51.799Z,1017.63
2018-07-23T10:39:50.686Z,1017.57
2018-07-23T10:40:51.922Z,1017.53
2018-07-23T10:41:50.796Z,1017.52
2018-07-23T10:42:51.287Z,1017.54
2018-07-23T10:43:50.900Z,1017.54
2018-07-23T10:44:50.598Z,1017.52
2018-07-23T10:45:51.037Z,1017.51
2018-07-23T10:46:50.595Z,1017.52
2018-07-23T10:48:33.800Z,1017.51
2018-07-23T10:49:34.360Z,1017.49
2018-07-23T10:50:34.465Z,1017.49
2018-07-23T10:51:34.327Z,1017.44
2018-07-23T10:52:55.038Z,1017.46
2018-07-23T10:53:55.814Z,1017.48
2018-07-23T10:54:55.491Z,1017.47
2018-07-23T10:55:56.276Z,1017.45
2018-07-23T10:56:55.969Z,1017.44
2018-07-23T10:57:55.912Z,1017.43
2018-07-23T10:59:17.232Z,1017.45
2018-07-23T11:00:18.074Z,1017.40
2018-07-23T11:01:17.579Z,1017.37
2018-07-23T11:02:17.486Z,1017.42
2018-07-23T11:03:18.258Z,1017.40
2018-07-23T11:04:18.069Z,1017.42
2018-07-23T11:05:17.809Z,1017.43
2018-07-23T11:06:17.442Z,1017.41
2018-07-23T11:07:39.549Z,1017.40
2018-07-23T11:08:40.337Z,1017.40
2018-07-23T11:09:40.058Z,1017.43
2018-07-23T11:10:40.291Z,1017.43
2018-07-23T11:12:01.888Z,1017.41
2018-07-23T11:13:02.503Z,1017.39
2018-07-23T11:14:02.296Z,1017.35
2018-07-23T11:15:03.171Z,1017.42
2018-07-23T11:16:02.909Z,1017.44
2018-07-23T11:17:02.641Z,1017.44
2018-07-23T11:18:02.417Z,1017.43
2018-07-23T11:19:02.175Z,1017.43
2018-07-23T11:20:02.980Z,1017.41
2018-07-23T11:21:02.933Z,1017.41
2018-07-23T11:22:03.061Z,1017.38
2018-07-23T11:23:04.127Z,1017.40
2018-07-23T11:24:26.429Z,1017.34
2018-07-23T11:25:39.178Z,1017.44
2018-07-23T11:26:18.066Z,1017.45
2018-07-23T11:28:01.933Z,1017.59
2018-07-23T11:29:02.538Z,1017.48
2018-07-23T11:30:02.277Z,1017.56
2018-07-23T11:31:03.055Z,1017.57
2018-07-23T11:32:02.917Z,1017.56
2018-07-23T11:33:23.969Z,1017.52
2018-07-23T11:34:25.288Z,1017.53
2018-07-23T11:35:25.065Z,1017.56
2018-07-23T11:36:24.703Z,1017.57
2018-07-23T11:37:24.430Z,1017.58
2018-07-23T11:38:47.774Z,1017.72
2018-07-23T11:40:31.529Z,1017.65
2018-07-23T11:41:32.326Z,1017.69
2018-07-23T11:42:32.222Z,1017.65
2018-07-23T11:43:32.111Z,1017.60
2018-07-23T11:44:31.823Z,1017.62
2018-07-23T11:45:32.362Z,1017.62
2018-07-23T11:46:32.078Z,1017.62
2018-07-23T11:47:31.757Z,1017.63
2018-07-23T11:48:32.345Z,1017.54
2018-07-23T11:49:32.152Z,1017.57
2018-07-23T11:50:31.700Z,1017.60
2018-07-23T11:51:32.764Z,1017.58
2018-07-23T11:52:32.700Z,1017.61
2018-07-23T11:53:32.409Z,1017.56
2018-07-23T11:54:32.102Z,1017.53
2018-07-23T11:55:32.066Z,1017.60
2018-07-23T11:56:31.755Z,1017.53
2018-07-23T11:57:31.577Z,1017.54
2018-07-23T11:58:32.356Z,1017.54
2018-07-23T11:59:31.992Z,1017.52
2018-07-23T12:00:31.529Z,1017.53
2018-07-23T12:01:53.949Z,1017.52
2018-07-23T12:02:54.584Z,1017.54
2018-07-23T12:03:54.514Z,1017.47
2018-07-23T12:04:54.049Z,1017.45
2018-07-23T12:05:53.933Z,1017.46
2018-07-23T12:06:54.516Z,1017.46
2018-07-23T12:07:53.888Z,1017.43
2018-07-23T12:08:54.541Z,1017.45
2018-07-23T12:09:54.038Z,1017.39
2018-07-23T12:10:53.585Z,1017.47
2018-07-23T12:12:15.563Z,1017.47
2018-07-23T12:13:16.902Z,1017.44
2018-07-23T12:14:16.422Z,1017.42
2018-07-23T12:15:15.804Z,1017.44
2018-07-23T12:16:17.167Z,1017.46
2018-07-23T12:17:16.466Z,1017.45
2018-07-23T12:18:16.033Z,1017.42
2018-07-23T12:19:15.816Z,1017.38
2018-07-23T12:20:16.482Z,1017.36
2018-07-23T12:21:16.399Z,1017.38
2018-07-23T12:22:15.971Z,1017.38
2018-07-23T12:23:40.030Z,1017.38
2018-07-23T12:24:40.814Z,1017.36
2018-07-23T12:26:02.955Z,1017.37
2018-07-23T12:27:02.756Z,1017.34
2018-07-23T12:28:24.862Z,1017.33
2018-07-23T12:29:25.593Z,1017.30
2018-07-23T12:30:25.594Z,1017.36
2018-07-23T12:31:25.216Z,1017.39
2018-07-23T12:32:24.800Z,1017.37
2018-07-23T12:33:25.615Z,1017.37
2018-07-23T12:34:46.384Z,1017.35
2018-07-23T12:35:47.293Z,1017.34
2018-07-23T12:36:46.929Z,1017.37
2018-07-23T12:37:46.567Z,1017.36
2018-07-23T12:38:47.007Z,1017.33
2018-07-23T12:40:07.704Z,1017.30
2018-07-23T12:41:08.180Z,1017.35
2018-07-23T12:42:07.836Z,1017.34
2018-07-23T12:43:08.900Z,1017.32
2018-07-23T12:44:30.839Z,1017.36
2018-07-23T12:45:30.626Z,1017.40
2018-07-23T12:46:53.798Z,1017.38
2018-07-23T12:47:53.844Z,1017.34
2018-07-23T12:48:56.551Z,1017.40
2018-07-23T12:49:55.043Z,1017.47
2018-07-23T12:51:17.548Z,1017.43
2018-07-23T12:52:18.224Z,1017.44
2018-07-23T12:53:18.002Z,1017.44